sensor_id;sensor_type;location;lat;lon;timestamp;P1;durP1;ratioP1;P2;durP2;ratioP2
25509;SDS011;13413;52.336;21.200;2023-07-13T00:01:31;16.50;;;14.80;;
25509;SDS011;13413;52.336;21.200;2023-07-13T00:04:25;16.50;;;14.90;;
25509;SDS011;13413;52.336;21.200;2023-07-13T00:07:19;16.60;;;14.90;;
25509;SDS011;13413;52.336;21.200;2023-07-13T00:10:13;17.00;;;14.30;;
25509;SDS011;13413;52.336;21.200;2023-07-13T00:13:07;16.50;;;13.90;;
25509;SDS011;13413;52.336;21.200;2023-07-13T00:16:00;14.40;;;12.90;;
25509;SDS011;13413;52.336;21.200;2023-07-13T00:18:55;15.60;;;14.10;;
25509;SDS011;13413;52.336;21.200;2023-07-13T00:21:48;11.10;;;9.90;;
25509;SDS011;13413;52.336;21.200;2023-07-13T00:30:16;13.90;;;12.50;;
25509;SDS011;13413;52.336;21.200;2023-07-13T00:33:11;13.40;;;12.00;;
25509;SDS011;13413;52.336;21.200;2023-07-13T00:36:05;14.30;;;12.80;;
25509;SDS011;13413;52.336;21.200;2023-07-13T00:39:00;15.60;;;12.50;;
25509;SDS011;13413;52.336;21.200;2023-07-13T00:42:10;14.60;;;13.10;;
25509;SDS011;13413;52.336;21.200;2023-07-13T00:46:08;14.00;;;12.50;;
25509;SDS011;13413;52.336;21.200;2023-07-13T00:48:39;17.70;;;12.30;;
25509;SDS011;13413;52.336;21.200;2023-07-13T00:51:34;14.60;;;12.70;;
25509;SDS011;13413;52.336;21.200;2023-07-13T00:54:33;13.90;;;12.50;;
25509;SDS011;13413;52.336;21.200;2023-07-13T00:57:30;13.20;;;11.80;;
25509;SDS011;13413;52.336;21.200;2023-07-13T01:00:24;17.80;;;13.60;;
25509;SDS011;13413;52.336;21.200;2023-07-13T01:03:21;14.90;;;13.00;;
25509;SDS011;13413;52.336;21.200;2023-07-13T01:06:15;14.90;;;13.50;;
25509;SDS011;13413;52.336;21.200;2023-07-13T01:09:09;16.60;;;13.60;;
25509;SDS011;13413;52.336;21.200;2023-07-13T01:12:04;20.70;;;14.60;;
25509;SDS011;13413;52.336;21.200;2023-07-13T01:15:01;15.30;;;13.80;;
25509;SDS011;13413;52.336;21.200;2023-07-13T01:17:56;18.10;;;13.50;;
25509;SDS011;13413;52.336;21.200;2023-07-13T01:20:52;15.40;;;13.60;;
25509;SDS011;13413;52.336;21.200;2023-07-13T01:23:47;14.50;;;13.00;;
25509;SDS011;13413;52.336;21.200;2023-07-13T01:26:41;15.20;;;13.70;;
25509;SDS011;13413;52.336;21.200;2023-07-13T01:29:35;15.30;;;13.60;;
25509;SDS011;13413;52.336;21.200;2023-07-13T01:32:31;17.00;;;14.10;;
25509;SDS011;13413;52.336;21.200;2023-07-13T01:35:25;14.90;;;13.20;;
25509;SDS011;13413;52.336;21.200;2023-07-13T01:38:20;15.30;;;13.70;;
25509;SDS011;13413;52.336;21.200;2023-07-13T01:41:14;15.40;;;13.70;;
25509;SDS011;13413;52.336;21.200;2023-07-13T01:44:08;14.30;;;12.90;;
25509;SDS011;13413;52.336;21.200;2023-07-13T01:47:02;16.10;;;14.20;;
25509;SDS011;13413;52.336;21.200;2023-07-13T01:49:57;15.80;;;14.20;;
25509;SDS011;13413;52.336;21.200;2023-07-13T01:52:51;15.40;;;13.40;;
25509;SDS011;13413;52.336;21.200;2023-07-13T01:55:45;15.90;;;14.40;;
25509;SDS011;13413;52.336;21.200;2023-07-13T01:58:39;17.50;;;14.00;;
25509;SDS011;13413;52.336;21.200;2023-07-13T02:01:33;14.70;;;13.10;;
25509;SDS011;13413;52.336;21.200;2023-07-13T02:04:27;19.00;;;16.10;;
25509;SDS011;13413;52.336;21.200;2023-07-13T02:07:21;16.20;;;13.60;;
25509;SDS011;13413;52.336;21.200;2023-07-13T02:10:15;16.70;;;14.10;;
25509;SDS011;13413;52.336;21.200;2023-07-13T02:13:12;15.80;;;14.20;;
25509;SDS011;13413;52.336;21.200;2023-07-13T02:16:06;15.70;;;13.70;;
25509;SDS011;13413;52.336;21.200;2023-07-13T02:19:00;15.40;;;13.90;;
25509;SDS011;13413;52.336;21.200;2023-07-13T02:21:54;23.90;;;15.90;;
25509;SDS011;13413;52.336;21.200;2023-07-13T02:24:48;18.00;;;14.40;;
25509;SDS011;13413;52.336;21.200;2023-07-13T02:27:43;15.70;;;13.90;;
25509;SDS011;13413;52.336;21.200;2023-07-13T02:30:37;18.60;;;15.60;;
25509;SDS011;13413;52.336;21.200;2023-07-13T02:33:32;20.90;;;14.80;;
25509;SDS011;13413;52.336;21.200;2023-07-13T02:36:26;19.80;;;14.80;;
25509;SDS011;13413;52.336;21.200;2023-07-13T02:39:20;15.60;;;13.60;;
25509;SDS011;13413;52.336;21.200;2023-07-13T02:50:35;15.30;;;13.70;;
25509;SDS011;13413;52.336;21.200;2023-07-13T02:53:29;18.70;;;13.70;;
25509;SDS011;13413;52.336;21.200;2023-07-13T02:56:24;14.40;;;12.70;;
25509;SDS011;13413;52.336;21.200;2023-07-13T02:59:19;17.20;;;15.40;;
25509;SDS011;13413;52.336;21.200;2023-07-13T03:02:13;16.00;;;13.10;;
25509;SDS011;13413;52.336;21.200;2023-07-13T03:05:08;18.70;;;15.20;;
25509;SDS011;13413;52.336;21.200;2023-07-13T03:08:02;16.90;;;14.30;;
25509;SDS011;13413;52.336;21.200;2023-07-13T03:11:00;16.60;;;13.70;;
25509;SDS011;13413;52.336;21.200;2023-07-13T03:13:55;15.90;;;14.20;;
25509;SDS011;13413;52.336;21.200;2023-07-13T03:16:49;16.90;;;13.30;;
25509;SDS011;13413;52.336;21.200;2023-07-13T03:19:43;20.50;;;13.40;;
25509;SDS011;13413;52.336;21.200;2023-07-13T03:22:38;14.50;;;13.00;;
25509;SDS011;13413;52.336;21.200;2023-07-13T03:25:31;14.60;;;13.00;;
25509;SDS011;13413;52.336;21.200;2023-07-13T03:28:25;15.30;;;13.00;;
25509;SDS011;13413;52.336;21.200;2023-07-13T03:31:20;20.30;;;14.40;;
25509;SDS011;13413;52.336;21.200;2023-07-13T03:34:16;16.00;;;14.30;;
25509;SDS011;13413;52.336;21.200;2023-07-13T03:37:10;16.10;;;13.70;;
25509;SDS011;13413;52.336;21.200;2023-07-13T03:40:05;18.00;;;14.90;;
25509;SDS011;13413;52.336;21.200;2023-07-13T03:43:01;15.20;;;13.60;;
25509;SDS011;13413;52.336;21.200;2023-07-13T03:45:55;15.90;;;13.70;;
25509;SDS011;13413;52.336;21.200;2023-07-13T03:48:49;14.60;;;13.10;;
25509;SDS011;13413;52.336;21.200;2023-07-13T03:51:42;14.90;;;13.30;;
25509;SDS011;13413;52.336;21.200;2023-07-13T03:54:36;17.70;;;13.00;;
25509;SDS011;13413;52.336;21.200;2023-07-13T03:57:30;16.10;;;14.40;;
25509;SDS011;13413;52.336;21.200;2023-07-13T04:00:24;16.10;;;14.10;;
25509;SDS011;13413;52.336;21.200;2023-07-13T04:03:18;16.10;;;14.30;;
25509;SDS011;13413;52.336;21.200;2023-07-13T04:06:16;17.10;;;14.90;;
25509;SDS011;13413;52.336;21.200;2023-07-13T04:09:11;16.60;;;14.40;;
25509;SDS011;13413;52.336;21.200;2023-07-13T04:12:06;18.40;;;15.70;;
25509;SDS011;13413;52.336;21.200;2023-07-13T04:15:00;17.00;;;15.20;;
25509;SDS011;13413;52.336;21.200;2023-07-13T04:17:54;18.90;;;17.00;;
25509;SDS011;13413;52.336;21.200;2023-07-13T04:20:49;17.80;;;15.90;;
25509;SDS011;13413;52.336;21.200;2023-07-13T04:23:43;22.70;;;15.40;;
25509;SDS011;13413;52.336;21.200;2023-07-13T04:26:38;23.60;;;16.80;;
25509;SDS011;13413;52.336;21.200;2023-07-13T04:29:31;20.00;;;16.30;;
25509;SDS011;13413;52.336;21.200;2023-07-13T04:32:25;23.90;;;17.30;;
25509;SDS011;13413;52.336;21.200;2023-07-13T04:35:20;22.70;;;18.10;;
25509;SDS011;13413;52.336;21.200;2023-07-13T04:38:14;20.90;;;17.50;;
25509;SDS011;13413;52.336;21.200;2023-07-13T04:41:08;19.10;;;16.60;;
25509;SDS011;13413;52.336;21.200;2023-07-13T04:44:03;20.90;;;18.60;;
25509;SDS011;13413;52.336;21.200;2023-07-13T04:46:56;22.70;;;20.10;;
25509;SDS011;13413;52.336;21.200;2023-07-13T04:49:50;23.60;;;19.30;;
25509;SDS011;13413;52.336;21.200;2023-07-13T04:55:40;24.60;;;18.30;;
25509;SDS011;13413;52.336;21.200;2023-07-13T04:58:34;25.70;;;19.00;;
25509;SDS011;13413;52.336;21.200;2023-07-13T05:01:29;24.50;;;19.20;;
25509;SDS011;13413;52.336;21.200;2023-07-13T05:10:28;22.30;;;19.90;;
25509;SDS011;13413;52.336;21.200;2023-07-13T05:13:21;24.50;;;19.20;;
25509;SDS011;13413;52.336;21.200;2023-07-13T05:16:16;21.60;;;18.90;;
25509;SDS011;13413;52.336;21.200;2023-07-13T05:19:10;23.30;;;18.80;;
25509;SDS011;13413;52.336;21.200;2023-07-13T05:22:04;20.00;;;17.50;;
25509;SDS011;13413;52.336;21.200;2023-07-13T05:24:58;19.90;;;17.70;;
25509;SDS011;13413;52.336;21.200;2023-07-13T05:27:52;31.10;;;18.10;;
25509;SDS011;13413;52.336;21.200;2023-07-13T05:30:46;22.80;;;19.50;;
25509;SDS011;13413;52.336;21.200;2023-07-13T05:33:40;23.00;;;17.90;;
25509;SDS011;13413;52.336;21.200;2023-07-13T05:36:34;51.50;;;21.20;;
25509;SDS011;13413;52.336;21.200;2023-07-13T05:39:29;20.70;;;18.00;;
25509;SDS011;13413;52.336;21.200;2023-07-13T05:42:22;23.80;;;17.40;;
25509;SDS011;13413;52.336;21.200;2023-07-13T05:45:17;23.00;;;17.30;;
25509;SDS011;13413;52.336;21.200;2023-07-13T05:48:11;20.20;;;18.10;;
25509;SDS011;13413;52.336;21.200;2023-07-13T05:51:05;19.70;;;16.80;;
25509;SDS011;13413;52.336;21.200;2023-07-13T05:53:58;18.80;;;16.80;;
25509;SDS011;13413;52.336;21.200;2023-07-13T05:56:52;20.70;;;18.30;;
25509;SDS011;13413;52.336;21.200;2023-07-13T05:59:47;20.00;;;16.50;;
25509;SDS011;13413;52.336;21.200;2023-07-13T06:02:41;23.10;;;18.10;;
25509;SDS011;13413;52.336;21.200;2023-07-13T06:05:35;20.30;;;17.50;;
25509;SDS011;13413;52.336;21.200;2023-07-13T06:11:22;26.10;;;16.00;;
25509;SDS011;13413;52.336;21.200;2023-07-13T06:14:17;21.40;;;17.10;;
25509;SDS011;13413;52.336;21.200;2023-07-13T06:17:12;18.00;;;15.50;;
25509;SDS011;13413;52.336;21.200;2023-07-13T06:20:07;18.50;;;15.70;;
25509;SDS011;13413;52.336;21.200;2023-07-13T06:23:02;23.40;;;15.10;;
25509;SDS011;13413;52.336;21.200;2023-07-13T06:25:56;14.80;;;12.90;;
25509;SDS011;13413;52.336;21.200;2023-07-13T06:28:50;14.30;;;12.60;;
25509;SDS011;13413;52.336;21.200;2023-07-13T06:31:44;15.10;;;12.40;;
25509;SDS011;13413;52.336;21.200;2023-07-13T06:34:38;12.40;;;10.60;;
25509;SDS011;13413;52.336;21.200;2023-07-13T06:37:33;12.00;;;10.00;;
25509;SDS011;13413;52.336;21.200;2023-07-13T06:40:26;10.20;;;9.00;;
25509;SDS011;13413;52.336;21.200;2023-07-13T06:43:20;10.00;;;9.00;;
25509;SDS011;13413;52.336;21.200;2023-07-13T06:46:14;9.50;;;8.40;;
25509;SDS011;13413;52.336;21.200;2023-07-13T06:49:09;13.20;;;8.50;;
25509;SDS011;13413;52.336;21.200;2023-07-13T06:52:03;12.60;;;8.50;;
25509;SDS011;13413;52.336;21.200;2023-07-13T06:55:00;10.00;;;8.60;;
25509;SDS011;13413;52.336;21.200;2023-07-13T06:57:53;8.20;;;7.10;;
25509;SDS011;13413;52.336;21.200;2023-07-13T07:00:49;9.60;;;7.70;;
25509;SDS011;13413;52.336;21.200;2023-07-13T07:03:44;10.50;;;7.20;;
25509;SDS011;13413;52.336;21.200;2023-07-13T07:06:38;7.50;;;6.60;;
25509;SDS011;13413;52.336;21.200;2023-07-13T07:09:32;6.90;;;6.20;;
25509;SDS011;13413;52.336;21.200;2023-07-13T07:12:25;7.70;;;6.80;;
25509;SDS011;13413;52.336;21.200;2023-07-13T07:15:20;8.90;;;6.50;;
25509;SDS011;13413;52.336;21.200;2023-07-13T07:18:14;11.20;;;8.40;;
25509;SDS011;13413;52.336;21.200;2023-07-13T07:29:48;8.80;;;7.50;;
25509;SDS011;13413;52.336;21.200;2023-07-13T07:32:42;8.70;;;6.80;;
25509;SDS011;13413;52.336;21.200;2023-07-13T07:35:36;11.80;;;7.60;;
25509;SDS011;13413;52.336;21.200;2023-07-13T07:38:30;10.80;;;8.50;;
25509;SDS011;13413;52.336;21.200;2023-07-13T07:41:24;10.00;;;7.20;;
25509;SDS011;13413;52.336;21.200;2023-07-13T07:44:18;10.50;;;7.20;;
25509;SDS011;13413;52.336;21.200;2023-07-13T07:47:12;7.80;;;7.00;;
25509;SDS011;13413;52.336;21.200;2023-07-13T07:50:07;10.70;;;7.30;;
25509;SDS011;13413;52.336;21.200;2023-07-13T07:53:02;10.20;;;7.30;;
25509;SDS011;13413;52.336;21.200;2023-07-13T07:55:56;9.70;;;6.70;;
25509;SDS011;13413;52.336;21.200;2023-07-13T07:58:50;9.10;;;6.20;;
25509;SDS011;13413;52.336;21.200;2023-07-13T08:01:44;7.40;;;6.60;;
25509;SDS011;13413;52.336;21.200;2023-07-13T08:04:38;7.50;;;6.70;;
25509;SDS011;13413;52.336;21.200;2023-07-13T08:07:32;12.70;;;7.50;;
25509;SDS011;13413;52.336;21.200;2023-07-13T08:10:27;8.90;;;6.50;;
25509;SDS011;13413;52.336;21.200;2023-07-13T08:13:21;6.50;;;5.90;;
25509;SDS011;13413;52.336;21.200;2023-07-13T08:16:15;7.40;;;6.70;;
25509;SDS011;13413;52.336;21.200;2023-07-13T08:19:09;6.90;;;6.30;;
25509;SDS011;13413;52.336;21.200;2023-07-13T08:22:03;7.40;;;6.70;;
25509;SDS011;13413;52.336;21.200;2023-07-13T08:24:58;11.50;;;7.60;;
25509;SDS011;13413;52.336;21.200;2023-07-13T08:27:52;11.20;;;6.80;;
25509;SDS011;13413;52.336;21.200;2023-07-13T08:30:46;8.70;;;7.00;;
25509;SDS011;13413;52.336;21.200;2023-07-13T08:33:40;8.80;;;7.60;;
25509;SDS011;13413;52.336;21.200;2023-07-13T08:36:34;10.20;;;7.10;;
25509;SDS011;13413;52.336;21.200;2023-07-13T08:39:29;6.70;;;6.10;;
25509;SDS011;13413;52.336;21.200;2023-07-13T08:42:31;7.70;;;6.70;;
25509;SDS011;13413;52.336;21.200;2023-07-13T08:45:29;8.20;;;7.00;;
25509;SDS011;13413;52.336;21.200;2023-07-13T08:48:31;8.80;;;8.00;;
25509;SDS011;13413;52.336;21.200;2023-07-13T08:51:33;15.60;;;7.40;;
25509;SDS011;13413;52.336;21.200;2023-07-13T08:54:32;9.00;;;7.80;;
25509;SDS011;13413;52.336;21.200;2023-07-13T08:57:29;8.10;;;7.30;;
25509;SDS011;13413;52.336;21.200;2023-07-13T09:00:28;10.80;;;7.30;;
25509;SDS011;13413;52.336;21.200;2023-07-13T09:03:35;45.40;;;10.00;;
25509;SDS011;13413;52.336;21.200;2023-07-13T09:06:37;10.90;;;8.10;;
25509;SDS011;13413;52.336;21.200;2023-07-13T09:09:41;12.70;;;7.10;;
25509;SDS011;13413;52.336;21.200;2023-07-13T09:12:46;7.70;;;6.60;;
25509;SDS011;13413;52.336;21.200;2023-07-13T09:15:50;8.20;;;6.90;;
25509;SDS011;13413;52.336;21.200;2023-07-13T09:18:46;10.10;;;6.90;;
25509;SDS011;13413;52.336;21.200;2023-07-13T09:21:42;7.00;;;3.70;;
25509;SDS011;13413;52.336;21.200;2023-07-13T09:24:39;9.20;;;3.50;;
25509;SDS011;13413;52.336;21.200;2023-07-13T09:27:43;5.60;;;3.10;;
25509;SDS011;13413;52.336;21.200;2023-07-13T09:30:40;3.30;;;3.00;;
25509;SDS011;13413;52.336;21.200;2023-07-13T09:33:42;7.00;;;3.20;;
25509;SDS011;13413;52.336;21.200;2023-07-13T09:36:36;5.00;;;3.00;;
25509;SDS011;13413;52.336;21.200;2023-07-13T09:50:31;9.60;;;3.70;;
25509;SDS011;13413;52.336;21.200;2023-07-13T09:53:25;7.20;;;3.50;;
25509;SDS011;13413;52.336;21.200;2023-07-13T09:56:27;3.60;;;3.30;;
25509;SDS011;13413;52.336;21.200;2023-07-13T09:59:22;6.50;;;3.50;;
25509;SDS011;13413;52.336;21.200;2023-07-13T10:02:24;5.20;;;3.50;;
25509;SDS011;13413;52.336;21.200;2023-07-13T10:05:22;4.00;;;3.30;;
25509;SDS011;13413;52.336;21.200;2023-07-13T10:08:18;74.20;;;10.40;;
25509;SDS011;13413;52.336;21.200;2023-07-13T10:11:17;6.60;;;3.70;;
25509;SDS011;13413;52.336;21.200;2023-07-13T10:14:13;3.80;;;3.30;;
25509;SDS011;13413;52.336;21.200;2023-07-13T10:17:10;6.80;;;3.20;;
25509;SDS011;13413;52.336;21.200;2023-07-13T10:20:06;4.10;;;3.10;;
25509;SDS011;13413;52.336;21.200;2023-07-13T10:23:01;4.40;;;2.70;;
25509;SDS011;13413;52.336;21.200;2023-07-13T10:25:57;2.50;;;2.30;;
25509;SDS011;13413;52.336;21.200;2023-07-13T10:28:54;3.00;;;2.60;;
25509;SDS011;13413;52.336;21.200;2023-07-13T10:31:51;2.60;;;2.40;;
25509;SDS011;13413;52.336;21.200;2023-07-13T10:34:45;3.30;;;3.00;;
25509;SDS011;13413;52.336;21.200;2023-07-13T10:37:41;5.30;;;2.90;;
25509;SDS011;13413;52.336;21.200;2023-07-13T10:40:40;4.40;;;2.80;;
25509;SDS011;13413;52.336;21.200;2023-07-13T10:43:41;13.90;;;3.20;;
25509;SDS011;13413;52.336;21.200;2023-07-13T10:46:37;2.90;;;2.60;;
25509;SDS011;13413;52.336;21.200;2023-07-13T10:49:33;4.40;;;2.50;;
25509;SDS011;13413;52.336;21.200;2023-07-13T10:52:42;2.70;;;2.20;;
25509;SDS011;13413;52.336;21.200;2023-07-13T10:55:40;2.50;;;2.30;;
25509;SDS011;13413;52.336;21.200;2023-07-13T10:58:46;5.00;;;2.90;;
25509;SDS011;13413;52.336;21.200;2023-07-13T11:01:41;4.40;;;2.90;;
25509;SDS011;13413;52.336;21.200;2023-07-13T11:04:46;2.90;;;2.70;;
25509;SDS011;13413;52.336;21.200;2023-07-13T11:07:53;9.50;;;3.50;;
25509;SDS011;13413;52.336;21.200;2023-07-13T11:10:54;4.30;;;3.30;;
25509;SDS011;13413;52.336;21.200;2023-07-13T11:20:30;5.40;;;3.80;;
25509;SDS011;13413;52.336;21.200;2023-07-13T11:23:30;8.20;;;4.10;;
25509;SDS011;13413;52.336;21.200;2023-07-13T11:26:42;9.60;;;4.20;;
25509;SDS011;13413;52.336;21.200;2023-07-13T11:29:43;6.60;;;4.30;;
25509;SDS011;13413;52.336;21.200;2023-07-13T11:32:37;5.90;;;4.60;;
25509;SDS011;13413;52.336;21.200;2023-07-13T11:35:32;12.50;;;4.90;;
25509;SDS011;13413;52.336;21.200;2023-07-13T11:38:30;5.60;;;5.10;;
25509;SDS011;13413;52.336;21.200;2023-07-13T11:41:28;7.10;;;5.90;;
25509;SDS011;13413;52.336;21.200;2023-07-13T11:44:26;8.80;;;7.10;;
25509;SDS011;13413;52.336;21.200;2023-07-13T11:47:21;8.50;;;7.10;;
25509;SDS011;13413;52.336;21.200;2023-07-13T11:50:19;5.60;;;4.90;;
25509;SDS011;13413;52.336;21.200;2023-07-13T11:53:14;6.10;;;5.30;;
25509;SDS011;13413;52.336;21.200;2023-07-13T11:56:08;7.20;;;4.80;;
25509;SDS011;13413;52.336;21.200;2023-07-13T11:59:07;9.50;;;5.20;;
25509;SDS011;13413;52.336;21.200;2023-07-13T12:10:29;6.70;;;4.80;;
25509;SDS011;13413;52.336;21.200;2023-07-13T12:16:16;5.30;;;4.80;;
25509;SDS011;13413;52.336;21.200;2023-07-13T12:19:18;6.60;;;5.00;;
25509;SDS011;13413;52.336;21.200;2023-07-13T12:22:14;5.60;;;5.00;;
25509;SDS011;13413;52.336;21.200;2023-07-13T12:25:12;6.50;;;5.40;;
25509;SDS011;13413;52.336;21.200;2023-07-13T12:28:21;6.70;;;5.10;;
25509;SDS011;13413;52.336;21.200;2023-07-13T12:31:26;6.40;;;5.40;;
25509;SDS011;13413;52.336;21.200;2023-07-13T12:34:25;7.50;;;5.50;;
25509;SDS011;13413;52.336;21.200;2023-07-13T12:37:20;7.70;;;6.00;;
25509;SDS011;13413;52.336;21.200;2023-07-13T12:43:12;6.50;;;5.40;;
25509;SDS011;13413;52.336;21.200;2023-07-13T12:46:15;8.40;;;5.60;;
25509;SDS011;13413;52.336;21.200;2023-07-13T12:49:14;6.50;;;5.80;;
25509;SDS011;13413;52.336;21.200;2023-07-13T12:55:12;6.50;;;5.80;;
25509;SDS011;13413;52.336;21.200;2023-07-13T12:58:13;12.80;;;11.10;;
25509;SDS011;13413;52.336;21.200;2023-07-13T13:01:12;14.60;;;12.90;;
25509;SDS011;13413;52.336;21.200;2023-07-13T13:07:05;10.30;;;8.10;;
25509;SDS011;13413;52.336;21.200;2023-07-13T13:10:04;10.60;;;8.10;;
25509;SDS011;13413;52.336;21.200;2023-07-13T13:13:05;7.80;;;6.70;;
25509;SDS011;13413;52.336;21.200;2023-07-13T13:16:02;9.10;;;7.20;;
25509;SDS011;13413;52.336;21.200;2023-07-13T13:19:01;9.90;;;7.40;;
25509;SDS011;13413;52.336;21.200;2023-07-13T13:22:07;8.20;;;7.10;;
25509;SDS011;13413;52.336;21.200;2023-07-13T13:25:01;11.40;;;7.10;;
25509;SDS011;13413;52.336;21.200;2023-07-13T13:30:48;7.40;;;6.50;;
25509;SDS011;13413;52.336;21.200;2023-07-13T13:33:44;10.20;;;9.00;;
25509;SDS011;13413;52.336;21.200;2023-07-13T13:36:38;10.00;;;9.10;;
25509;SDS011;13413;52.336;21.200;2023-07-13T13:39:33;10.30;;;9.20;;
25509;SDS011;13413;52.336;21.200;2023-07-13T13:42:28;9.70;;;8.70;;
25509;SDS011;13413;52.336;21.200;2023-07-13T13:45:22;11.70;;;8.60;;
25509;SDS011;13413;52.336;21.200;2023-07-13T13:48:17;9.60;;;8.50;;
25509;SDS011;13413;52.336;21.200;2023-07-13T13:54:26;10.30;;;8.50;;
25509;SDS011;13413;52.336;21.200;2023-07-13T13:57:20;16.90;;;9.30;;
25509;SDS011;13413;52.336;21.200;2023-07-13T14:00:16;9.20;;;8.30;;
25509;SDS011;13413;52.336;21.200;2023-07-13T14:03:15;10.00;;;8.40;;
25509;SDS011;13413;52.336;21.200;2023-07-13T14:06:12;10.20;;;9.20;;
25509;SDS011;13413;52.336;21.200;2023-07-13T14:09:08;10.70;;;9.60;;
25509;SDS011;13413;52.336;21.200;2023-07-13T14:12:05;9.70;;;8.70;;
25509;SDS011;13413;52.336;21.200;2023-07-13T14:15:01;9.40;;;8.50;;
25509;SDS011;13413;52.336;21.200;2023-07-13T14:17:55;9.80;;;8.90;;
25509;SDS011;13413;52.336;21.200;2023-07-13T14:20:49;6.50;;;5.90;;
25509;SDS011;13413;52.336;21.200;2023-07-13T14:29:40;9.60;;;8.60;;
25509;SDS011;13413;52.336;21.200;2023-07-13T14:32:34;9.50;;;8.50;;
25509;SDS011;13413;52.336;21.200;2023-07-13T14:35:28;12.50;;;9.30;;
25509;SDS011;13413;52.336;21.200;2023-07-13T14:38:23;10.70;;;9.60;;
25509;SDS011;13413;52.336;21.200;2023-07-13T14:41:16;21.80;;;9.20;;
25509;SDS011;13413;52.336;21.200;2023-07-13T14:44:13;12.40;;;10.90;;
25509;SDS011;13413;52.336;21.200;2023-07-13T14:47:08;11.80;;;10.40;;
25509;SDS011;13413;52.336;21.200;2023-07-13T14:50:03;10.90;;;9.90;;
25509;SDS011;13413;52.336;21.200;2023-07-13T14:53:04;14.90;;;10.60;;
25509;SDS011;13413;52.336;21.200;2023-07-13T14:56:00;10.90;;;9.90;;
25509;SDS011;13413;52.336;21.200;2023-07-13T14:59:00;12.10;;;10.60;;
25509;SDS011;13413;52.336;21.200;2023-07-13T15:01:54;15.50;;;11.30;;
25509;SDS011;13413;52.336;21.200;2023-07-13T15:04:49;11.60;;;10.40;;
25509;SDS011;13413;52.336;21.200;2023-07-13T15:07:42;13.70;;;11.50;;
25509;SDS011;13413;52.336;21.200;2023-07-13T15:10:37;13.60;;;10.50;;
25509;SDS011;13413;52.336;21.200;2023-07-13T15:13:30;14.20;;;10.80;;
25509;SDS011;13413;52.336;21.200;2023-07-13T15:19:18;13.40;;;11.30;;
25509;SDS011;13413;52.336;21.200;2023-07-13T15:22:12;13.20;;;10.80;;
25509;SDS011;13413;52.336;21.200;2023-07-13T15:25:10;17.30;;;12.10;;
25509;SDS011;13413;52.336;21.200;2023-07-13T15:28:07;12.10;;;10.70;;
25509;SDS011;13413;52.336;21.200;2023-07-13T15:31:01;12.60;;;10.80;;
25509;SDS011;13413;52.336;21.200;2023-07-13T15:34:12;16.80;;;11.40;;
25509;SDS011;13413;52.336;21.200;2023-07-13T15:37:09;12.80;;;11.40;;
25509;SDS011;13413;52.336;21.200;2023-07-13T15:40:09;12.80;;;11.50;;
25509;SDS011;13413;52.336;21.200;2023-07-13T15:43:08;13.40;;;11.40;;
25509;SDS011;13413;52.336;21.200;2023-07-13T15:46:05;17.10;;;11.70;;
25509;SDS011;13413;52.336;21.200;2023-07-13T15:48:59;13.10;;;11.50;;
25509;SDS011;13413;52.336;21.200;2023-07-13T15:54:47;14.00;;;11.10;;
25509;SDS011;13413;52.336;21.200;2023-07-13T15:57:43;11.00;;;9.90;;
25509;SDS011;13413;52.336;21.200;2023-07-13T16:00:38;10.70;;;9.60;;
25509;SDS011;13413;52.336;21.200;2023-07-13T16:03:53;13.10;;;10.60;;
25509;SDS011;13413;52.336;21.200;2023-07-13T16:06:46;14.60;;;10.80;;
25509;SDS011;13413;52.336;21.200;2023-07-13T16:09:40;14.60;;;11.10;;
25509;SDS011;13413;52.336;21.200;2023-07-13T16:12:35;18.10;;;11.60;;
25509;SDS011;13413;52.336;21.200;2023-07-13T16:15:28;18.90;;;12.60;;
25509;SDS011;13413;52.336;21.200;2023-07-13T16:18:23;14.00;;;11.10;;
25509;SDS011;13413;52.336;21.200;2023-07-13T16:21:16;14.60;;;12.10;;
25509;SDS011;13413;52.336;21.200;2023-07-13T16:24:15;18.20;;;12.00;;
25509;SDS011;13413;52.336;21.200;2023-07-13T16:27:11;19.80;;;11.60;;
25509;SDS011;13413;52.336;21.200;2023-07-13T16:30:11;14.50;;;10.40;;
25509;SDS011;13413;52.336;21.200;2023-07-13T16:33:06;11.30;;;9.30;;
25509;SDS011;13413;52.336;21.200;2023-07-13T16:36:00;12.70;;;10.60;;
25509;SDS011;13413;52.336;21.200;2023-07-13T16:38:56;12.90;;;10.20;;
25509;SDS011;13413;52.336;21.200;2023-07-13T16:50:42;14.40;;;9.90;;
25509;SDS011;13413;52.336;21.200;2023-07-13T16:53:36;11.80;;;9.00;;
25509;SDS011;13413;52.336;21.200;2023-07-13T16:56:31;11.30;;;8.60;;
25509;SDS011;13413;52.336;21.200;2023-07-13T16:59:29;11.30;;;9.60;;
25509;SDS011;13413;52.336;21.200;2023-07-13T17:02:32;10.90;;;8.50;;
25509;SDS011;13413;52.336;21.200;2023-07-13T17:05:27;9.70;;;8.40;;
25509;SDS011;13413;52.336;21.200;2023-07-13T17:08:23;9.30;;;8.30;;
25509;SDS011;13413;52.336;21.200;2023-07-13T17:11:20;10.70;;;8.30;;
25509;SDS011;13413;52.336;21.200;2023-07-13T17:14:14;9.10;;;8.10;;
25509;SDS011;13413;52.336;21.200;2023-07-13T17:17:12;10.60;;;7.90;;
25509;SDS011;13413;52.336;21.200;2023-07-13T17:20:13;8.70;;;7.80;;
25509;SDS011;13413;52.336;21.200;2023-07-13T17:23:12;10.60;;;8.20;;
25509;SDS011;13413;52.336;21.200;2023-07-13T17:26:08;9.40;;;8.20;;
25509;SDS011;13413;52.336;21.200;2023-07-13T17:29:02;9.00;;;8.10;;
25509;SDS011;13413;52.336;21.200;2023-07-13T17:31:55;9.70;;;8.40;;
25509;SDS011;13413;52.336;21.200;2023-07-13T17:34:48;11.60;;;8.50;;
25509;SDS011;13413;52.336;21.200;2023-07-13T17:37:43;11.60;;;8.60;;
25509;SDS011;13413;52.336;21.200;2023-07-13T17:40:37;17.50;;;8.50;;
25509;SDS011;13413;52.336;21.200;2023-07-13T17:43:31;12.70;;;9.10;;
25509;SDS011;13413;52.336;21.200;2023-07-13T17:46:26;11.00;;;9.10;;
25509;SDS011;13413;52.336;21.200;2023-07-13T17:49:23;12.30;;;9.70;;
25509;SDS011;13413;52.336;21.200;2023-07-13T17:52:17;11.90;;;8.90;;
25509;SDS011;13413;52.336;21.200;2023-07-13T17:55:14;13.90;;;9.20;;
25509;SDS011;13413;52.336;21.200;2023-07-13T17:58:09;11.50;;;9.60;;
25509;SDS011;13413;52.336;21.200;2023-07-13T18:01:07;13.30;;;9.40;;
25509;SDS011;13413;52.336;21.200;2023-07-13T18:04:04;12.40;;;10.00;;
25509;SDS011;13413;52.336;21.200;2023-07-13T18:06:58;9.80;;;8.80;;
25509;SDS011;13413;52.336;21.200;2023-07-13T18:09:52;10.00;;;9.10;;
25509;SDS011;13413;52.336;21.200;2023-07-13T18:12:46;14.10;;;9.60;;
25509;SDS011;13413;52.336;21.200;2023-07-13T18:15:40;10.50;;;9.40;;
25509;SDS011;13413;52.336;21.200;2023-07-13T18:18:34;10.90;;;9.80;;
25509;SDS011;13413;52.336;21.200;2023-07-13T18:21:28;12.20;;;8.90;;
25509;SDS011;13413;52.336;21.200;2023-07-13T18:24:25;12.90;;;10.70;;
25509;SDS011;13413;52.336;21.200;2023-07-13T18:27:19;12.60;;;9.60;;
25509;SDS011;13413;52.336;21.200;2023-07-13T18:30:14;12.70;;;10.20;;
25509;SDS011;13413;52.336;21.200;2023-07-13T18:33:12;15.20;;;10.10;;
25509;SDS011;13413;52.336;21.200;2023-07-13T18:36:12;14.60;;;10.80;;
25509;SDS011;13413;52.336;21.200;2023-07-13T18:39:10;9.70;;;8.40;;
25509;SDS011;13413;52.336;21.200;2023-07-13T18:42:08;10.60;;;9.50;;
25509;SDS011;13413;52.336;21.200;2023-07-13T18:45:03;13.90;;;9.90;;